Time;durP1;ratioP1;P1;durP2;ratioP2;P2;SDS_P1;SDS_P2;PMS_P1;PMS_P2;Temp;Humidity;BMP_temperature;BMP_pressure;BME280_temperature;BME280_humidity;BME280_pressure;Samples;Min_cycle;Max_cycle;Signal;HPM_P1;HPM_P2
2023/01/15 00:02:15;;;;;;;42.03;22.37;;;;;;;;;;4975095;28;20203;-47
2023/01/15 00:04:43;;;;;;;37.23;21.30;;;;;;;;;;4975896;28;20636;-50
2023/01/15 00:07:10;;;;;;;45.40;26.37;;;;;;;;;;4976277;28;20599;-47
2023/01/15 00:09:37;;;;;;;40.53;22.77;;;;;;;;;;4975803;28;20237;-46
2023/01/15 00:12:04;;;;;;;39.97;23.17;;;;;;;;;;4975804;28;20202;-45
2023/01/15 00:14:31;;;;;;;41.07;21.27;;;;;;;;;;4975744;28;20636;-47
2023/01/15 00:16:58;;;;;;;58.77;31.63;;;;;;;;;;4975762;28;20261;-47
2023/01/15 00:19:26;;;;;;;30.97;18.13;;;;;;;;;;4975808;28;20199;-45
2023/01/15 00:21:53;;;;;;;32.70;19.20;;;;;;;;;;4975996;28;20207;-45
2023/01/15 00:29:54;;;;;;;31.37;15.17;;;;;;;;;;4975740;28;20706;-45
2023/01/15 00:32:21;;;;;;;24.53;14.17;;;;;;;;;;4979801;28;20523;-47
2023/01/15 00:34:49;;;;;;;29.97;16.70;;;;;;;;;;4979077;28;20214;-46
2023/01/15 00:37:16;;;;;;;28.57;15.97;;;;;;;;;;4979678;28;20203;-46
2023/01/15 00:39:43;;;;;;;25.63;14.80;;;;;;;;;;4978527;28;20538;-46
2023/01/15 00:42:10;;;;;;;22.20;14.63;;;;;;;;;;4994809;28;20266;-46
2023/01/15 00:44:38;;;;;;;49.67;19.83;;;;;;;;;;4979291;28;20226;-45
2023/01/15 00:47:07;;;;;;;23.50;15.50;;;;;;;;;;4979072;28;20207;-47
2023/01/15 00:49:35;;;;;;;29.40;17.07;;;;;;;;;;4979334;28;20226;-46
2023/01/15 00:52:02;;;;;;;23.13;13.43;;;;;;;;;;4979372;28;20214;-47
2023/01/15 00:54:32;;;;;;;28.33;14.40;;;;;;;;;;4979283;28;20511;-45
2023/01/15 00:56:59;;;;;;;24.97;13.93;;;;;;;;;;4978189;28;20590;-45
2023/01/15 00:59:26;;;;;;;29.37;14.67;;;;;;;;;;4979083;28;20211;-46
2023/01/15 01:01:54;;;;;;;27.47;14.40;;;;;;;;;;4994421;28;20208;-45
2023/01/15 01:04:21;;;;;;;22.83;14.07;;;;;;;;;;4978351;28;20210;-46
2023/01/15 01:06:48;;;;;;;21.00;12.63;;;;;;;;;;4978934;28;20293;-45
2023/01/15 01:09:15;;;;;;;39.10;20.73;;;;;;;;;;4979092;28;20227;-47
2023/01/15 01:11:42;;;;;;;27.17;17.87;;;;;;;;;;4978744;28;20203;-45
2023/01/15 01:14:11;;;;;;;31.60;20.10;;;;;;;;;;4978313;28;20266;-45
2023/01/15 01:16:39;;;;;;;24.57;15.47;;;;;;;;;;4978802;28;20330;-46
2023/01/15 01:19:10;;;;;;;25.03;15.03;;;;;;;;;;4994150;28;20225;-45
2023/01/15 01:21:38;;;;;;;34.90;16.20;;;;;;;;;;4977969;28;20580;-45
2023/01/15 01:24:06;;;;;;;31.00;15.03;;;;;;;;;;4978620;28;20230;-45
2023/01/15 01:26:34;;;;;;;30.57;13.73;;;;;;;;;;4978848;28;20199;-45
2023/01/15 01:29:02;;;;;;;20.10;11.27;;;;;;;;;;4978591;28;20235;-47
2023/01/15 01:31:32;;;;;;;19.80;10.83;;;;;;;;;;4978302;28;20211;-48
2023/01/15 01:33:59;;;;;;;19.23;11.70;;;;;;;;;;4993651;28;20223;-47
2023/01/15 01:36:29;;;;;;;87.43;39.70;;;;;;;;;;4978707;28;20203;-51
2023/01/15 01:38:58;;;;;;;24.63;12.93;;;;;;;;;;4994474;28;20218;-49
2023/01/15 01:41:25;;;;;;;27.80;19.97;;;;;;;;;;4977674;28;20273;-50
2023/01/15 01:44:27;;;;;;;16.97;10.53;;;;;;;;;;4978318;28;20211;-45
2023/01/15 01:46:54;;;;;;;20.57;12.07;;;;;;;;;;4958283;28;20246;-47
2023/01/15 01:49:22;;;;;;;23.20;11.57;;;;;;;;;;4978300;28;20289;-46
2023/01/15 01:51:54;;;;;;;22.43;10.73;;;;;;;;;;4961570;28;20297;-45
2023/01/15 01:54:24;;;;;;;23.07;10.23;;;;;;;;;;4961561;28;20207;-46
2023/01/15 01:56:51;;;;;;;20.43;10.97;;;;;;;;;;4977236;28;20273;-46
2023/01/15 01:59:19;;;;;;;16.43;10.13;;;;;;;;;;4977068;28;20221;-48
2023/01/15 02:01:47;;;;;;;19.23;9.43;;;;;;;;;;4977885;28;20206;-48
2023/01/15 02:04:19;;;;;;;21.03;11.57;;;;;;;;;;4978144;28;20218;-47
2023/01/15 02:06:46;;;;;;;40.47;15.80;;;;;;;;;;4978167;28;20213;-49
2023/01/15 02:09:13;;;;;;;18.23;14.53;;;;;;;;;;4973750;28;20612;-47
2023/01/15 02:11:41;;;;;;;30.17;16.20;;;;;;;;;;4958771;28;20211;-46
2023/01/15 02:14:23;;;;;;;19.13;11.17;;;;;;;;;;4973492;28;20218;-46
2023/01/15 02:17:00;;;;;;;38.30;13.40;;;;;;;;;;4973448;28;20588;-47
2023/01/15 02:19:52;;;;;;;20.07;10.37;;;;;;;;;;4957635;29;20339;-46
2023/01/15 02:22:23;;;;;;;16.63;9.93;;;;;;;;;;4973693;28;20645;-48
2023/01/15 02:25:10;;;;;;;15.47;9.87;;;;;;;;;;4957733;29;20207;-50
2023/01/15 02:27:41;;;;;;;18.07;9.80;;;;;;;;;;4957745;29;20184;-45
2023/01/15 02:30:14;;;;;;;38.50;18.83;;;;;;;;;;4973546;28;20223;-47
2023/01/15 02:32:54;;;;;;;25.67;13.83;;;;;;;;;;4957462;29;20191;-46
2023/01/15 02:35:49;;;;;;;36.07;14.53;;;;;;;;;;4957309;29;20238;-46
2023/01/15 02:38:21;;;;;;;23.57;17.43;;;;;;;;;;4973539;28;20266;-47
2023/01/15 02:40:55;;;;;;;30.20;15.13;;;;;;;;;;4957458;29;20245;-46
2023/01/15 02:43:23;;;;;;;18.20;10.63;;;;;;;;;;4973059;28;20211;-45
2023/01/15 02:45:53;;;;;;;26.23;11.07;;;;;;;;;;4957234;29;20207;-49
2023/01/15 02:48:23;;;;;;;21.07;10.50;;;;;;;;;;4973115;28;20495;-47
2023/01/15 02:50:58;;;;;;;20.50;10.83;;;;;;;;;;4957768;28;20228;-45
2023/01/15 02:53:28;;;;;;;18.47;9.97;;;;;;;;;;4957224;28;20612;-48
2023/01/15 02:56:02;;;;;;;16.83;10.10;;;;;;;;;;4956590;29;20235;-46
2023/01/15 02:58:37;;;;;;;22.33;11.00;;;;;;;;;;4941759;29;20543;-46
2023/01/15 03:01:16;;;;;;;16.87;9.40;;;;;;;;;;4956588;29;20207;-46
2023/01/15 03:04:06;;;;;;;29.63;12.20;;;;;;;;;;4957629;28;20218;-47
2023/01/15 03:06:39;;;;;;;22.33;16.80;;;;;;;;;;4956618;29;20711;-46
2023/01/15 03:09:07;;;;;;;19.07;10.73;;;;;;;;;;4957798;28;20203;-47
2023/01/15 03:11:39;;;;;;;15.20;9.60;;;;;;;;;;4956591;29;20704;-50
2023/01/15 03:14:14;;;;;;;17.70;10.53;;;;;;;;;;4940843;29;20211;-46
2023/01/15 03:16:46;;;;;;;20.67;10.03;;;;;;;;;;4956715;29;20191;-46
2023/01/15 03:19:27;;;;;;;16.10;9.00;;;;;;;;;;4986511;28;20210;-47
2023/01/15 03:22:09;;;;;;;11.87;8.13;;;;;;;;;;4975683;28;20191;-46
2023/01/15 03:24:56;;;;;;;16.67;9.50;;;;;;;;;;4976558;28;20194;-49
2023/01/15 03:27:23;;;;;;;15.90;9.60;;;;;;;;;;4992180;28;20206;-46
2023/01/15 03:30:01;;;;;;;13.83;8.77;;;;;;;;;;4991569;28;20222;-48
2023/01/15 03:32:30;;;;;;;17.50;9.70;;;;;;;;;;4991622;28;20643;-48
2023/01/15 03:34:57;;;;;;;24.60;16.10;;;;;;;;;;4976220;28;20203;-46
2023/01/15 03:37:26;;;;;;;18.73;12.10;;;;;;;;;;4975353;28;20207;-46
2023/01/15 03:39:55;;;;;;;16.30;10.73;;;;;;;;;;4975548;28;20211;-48
2023/01/15 03:42:39;;;;;;;23.17;10.63;;;;;;;;;;4960341;28;20198;-47
2023/01/15 03:45:22;;;;;;;20.10;9.37;;;;;;;;;;4975332;28;20656;-47
2023/01/15 03:47:56;;;;;;;16.80;9.33;;;;;;;;;;4975223;28;20714;-49
2023/01/15 03:50:32;;;;;;;21.40;10.17;;;;;;;;;;4976011;28;20635;-47
2023/01/15 03:53:06;;;;;;;15.50;9.43;;;;;;;;;;4975942;28;20199;-46
2023/01/15 03:55:47;;;;;;;17.07;9.53;;;;;;;;;;4976064;28;20293;-47
2023/01/15 03:58:24;;;;;;;13.87;8.57;;;;;;;;;;4975271;28;20508;-45
2023/01/15 04:00:53;;;;;;;30.00;12.50;;;;;;;;;;4975224;28;20225;-47
2023/01/15 04:03:24;;;;;;;17.20;11.90;;;;;;;;;;4991305;28;20659;-47
2023/01/15 04:05:54;;;;;;;16.20;9.17;;;;;;;;;;4974727;28;20222;-46
2023/01/15 04:08:23;;;;;;;16.00;9.40;;;;;;;;;;4991349;28;20202;-46
2023/01/15 04:10:56;;;;;;;24.67;10.50;;;;;;;;;;4974863;28;20229;-46
2023/01/15 04:13:26;;;;;;;15.17;8.47;;;;;;;;;;4975093;28;20268;-46
2023/01/15 04:15:57;;;;;;;15.47;9.23;;;;;;;;;;4975956;28;20629;-47
2023/01/15 04:18:25;;;;;;;15.10;8.53;;;;;;;;;;4991320;28;20538;-46
2023/01/15 04:20:54;;;;;;;15.27;8.37;;;;;;;;;;4991063;28;20281;-46
2023/01/15 04:23:22;;;;;;;16.67;8.70;;;;;;;;;;4975707;28;20748;-45
2023/01/15 04:25:49;;;;;;;20.43;11.00;;;;;;;;;;4975721;28;20207;-46
2023/01/15 04:28:16;;;;;;;22.57;10.17;;;;;;;;;;4975989;28;20211;-46
2023/01/15 04:30:43;;;;;;;24.90;14.87;;;;;;;;;;4975633;28;20253;-48
2023/01/15 04:33:11;;;;;;;17.67;12.03;;;;;;;;;;4975418;28;20203;-47
2023/01/15 04:35:38;;;;;;;21.20;11.53;;;;;;;;;;4975596;28;20680;-46
2023/01/15 04:38:05;;;;;;;13.30;8.37;;;;;;;;;;4975614;28;20202;-45
2023/01/15 04:46:04;;;;;;;16.37;8.90;;;;;;;;;;4975693;28;20217;-45
2023/01/15 04:48:31;;;;;;;19.50;9.40;;;;;;;;;;4975846;28;20206;-45
2023/01/15 04:51:02;;;;;;;19.17;9.20;;;;;;;;;;4975896;28;20254;-46
2023/01/15 04:53:29;;;;;;;39.60;18.17;;;;;;;;;;4975737;28;20520;-46
2023/01/15 04:56:03;;;;;;;14.63;8.67;;;;;;;;;;4975724;28;20226;-46
2023/01/15 04:58:31;;;;;;;23.87;10.97;;;;;;;;;;4975460;28;20197;-46
2023/01/15 05:01:01;;;;;;;19.03;12.37;;;;;;;;;;4975684;28;20202;-46
2023/01/15 05:03:30;;;;;;;21.67;11.60;;;;;;;;;;4975765;28;20207;-45
2023/01/15 05:06:01;;;;;;;15.67;9.27;;;;;;;;;;4975605;28;20206;-45
2023/01/15 05:08:28;;;;;;;19.47;9.53;;;;;;;;;;4974755;28;20545;-46
2023/01/15 05:10:55;;;;;;;26.33;14.70;;;;;;;;;;4975333;28;20259;-46
2023/01/15 05:13:23;;;;;;;32.53;18.93;;;;;;;;;;4975317;28;20238;-45
2023/01/15 05:15:50;;;;;;;30.10;19.10;;;;;;;;;;4976159;28;20239;-45
2023/01/15 05:18:17;;;;;;;19.23;13.53;;;;;;;;;;4978901;28;20206;-45
2023/01/15 05:20:44;;;;;;;33.77;17.10;;;;;;;;;;4979158;28;20207;-45
2023/01/15 05:23:12;;;;;;;77.73;35.20;;;;;;;;;;4978795;28;20212;-45
2023/01/15 05:25:39;;;;;;;38.70;18.30;;;;;;;;;;4978523;28;20293;-46
2023/01/15 05:28:06;;;;;;;97.80;29.10;;;;;;;;;;4978542;28;20214;-45
2023/01/15 05:30:34;;;;;;;41.73;26.50;;;;;;;;;;4978477;28;20754;-45
2023/01/15 05:33:01;;;;;;;48.87;22.77;;;;;;;;;;4978567;28;20202;-45
2023/01/15 05:35:28;;;;;;;33.37;18.30;;;;;;;;;;4978778;28;20260;-45
2023/01/15 05:37:55;;;;;;;50.73;20.27;;;;;;;;;;4978509;28;20584;-46
2023/01/15 05:40:22;;;;;;;52.67;19.47;;;;;;;;;;4978258;28;20234;-46
2023/01/15 05:42:50;;;;;;;47.10;19.67;;;;;;;;;;4978319;28;20632;-46
2023/01/15 05:45:17;;;;;;;38.43;16.80;;;;;;;;;;4978251;28;20265;-46
2023/01/15 05:47:44;;;;;;;44.83;17.57;;;;;;;;;;4978796;28;20218;-46
2023/01/15 05:50:11;;;;;;;33.87;15.40;;;;;;;;;;4977728;28;20226;-47
2023/01/15 05:52:38;;;;;;;32.27;16.50;;;;;;;;;;4978410;28;20207;-49
2023/01/15 05:55:06;;;;;;;52.73;22.07;;;;;;;;;;4978691;28;20536;-46
2023/01/15 05:57:33;;;;;;;83.93;26.07;;;;;;;;;;4978443;28;20235;-47
2023/01/15 06:00:00;;;;;;;75.30;47.73;;;;;;;;;;4977899;28;20281;-49
2023/01/15 06:02:27;;;;;;;22.50;13.30;;;;;;;;;;4977910;28;20604;-46
2023/01/15 06:04:55;;;;;;;21.30;11.90;;;;;;;;;;4977879;28;20632;-47
2023/01/15 06:07:22;;;;;;;44.80;17.67;;;;;;;;;;4977894;28;20206;-46
2023/01/15 06:09:49;;;;;;;26.10;11.80;;;;;;;;;;4977595;28;20282;-47
2023/01/15 06:12:16;;;;;;;25.40;13.87;;;;;;;;;;4977574;28;20230;-49
2023/01/15 06:14:43;;;;;;;25.13;12.77;;;;;;;;;;4978182;28;20211;-45
2023/01/15 06:17:11;;;;;;;23.33;11.80;;;;;;;;;;4977894;28;20533;-49
2023/01/15 06:19:38;;;;;;;21.17;9.50;;;;;;;;;;4977692;28;20632;-46
2023/01/15 06:22:05;;;;;;;18.90;11.77;;;;;;;;;;4976814;28;20211;-45
2023/01/15 06:24:32;;;;;;;24.27;12.00;;;;;;;;;;4977771;28;20215;-45
2023/01/15 06:27:00;;;;;;;23.07;17.67;;;;;;;;;;4977567;28;20218;-45
2023/01/15 06:29:27;;;;;;;19.53;11.50;;;;;;;;;;4977236;28;20215;-49
2023/01/15 06:31:54;;;;;;;18.83;10.53;;;;;;;;;;4977584;28;20230;-46
2023/01/15 06:34:21;;;;;;;17.20;9.37;;;;;;;;;;4977692;28;20261;-45
2023/01/15 06:36:48;;;;;;;30.90;12.50;;;;;;;;;;4977241;28;20210;-46
2023/01/15 06:39:15;;;;;;;28.47;11.40;;;;;;;;;;4977155;28;20654;-45
2023/01/15 06:47:19;;;;;;;21.73;9.80;;;;;;;;;;4977087;28;20211;-45
2023/01/15 06:49:54;;;;;;;26.23;13.00;;;;;;;;;;4975985;28;20269;-45
2023/01/15 06:52:27;;;;;;;22.23;10.80;;;;;;;;;;4976905;28;20686;-47
2023/01/15 06:54:54;;;;;;;27.13;15.00;;;;;;;;;;4977146;28;20226;-47
2023/01/15 06:57:22;;;;;;;19.47;10.93;;;;;;;;;;4976729;28;20230;-44
2023/01/15 06:59:49;;;;;;;19.33;11.37;;;;;;;;;;4976806;28;20203;-48
2023/01/15 07:02:17;;;;;;;17.17;9.43;;;;;;;;;;4976868;28;20627;-47
2023/01/15 07:04:45;;;;;;;21.27;9.90;;;;;;;;;;4976326;28;20203;-46
2023/01/15 07:07:14;;;;;;;22.10;9.97;;;;;;;;;;4973911;28;20207;-48
2023/01/15 07:09:41;;;;;;;14.70;8.37;;;;;;;;;;4975620;28;20199;-45
2023/01/15 07:12:09;;;;;;;15.27;8.50;;;;;;;;;;4975222;28;20222;-47
2023/01/15 07:14:36;;;;;;;12.73;7.53;;;;;;;;;;4973381;28;20249;-48
2023/01/15 07:17:04;;;;;;;30.10;13.20;;;;;;;;;;4975075;28;20585;-47
2023/01/15 07:19:31;;;;;;;24.27;11.70;;;;;;;;;;4975355;28;20199;-44
2023/01/15 07:21:58;;;;;;;19.53;8.97;;;;;;;;;;4975284;28;20230;-46
2023/01/15 07:24:25;;;;;;;16.07;9.93;;;;;;;;;;4968561;28;20226;-46
2023/01/15 07:26:52;;;;;;;18.67;10.13;;;;;;;;;;4975774;28;20227;-47
2023/01/15 07:29:20;;;;;;;16.47;8.73;;;;;;;;;;4975660;28;20226;-47
2023/01/15 07:31:48;;;;;;;21.90;9.47;;;;;;;;;;4976048;28;20241;-45
2023/01/15 07:34:15;;;;;;;18.53;8.77;;;;;;;;;;4975088;28;20242;-45
2023/01/15 07:36:43;;;;;;;15.23;7.90;;;;;;;;;;4975629;28;20229;-48
2023/01/15 07:39:10;;;;;;;16.80;7.80;;;;;;;;;;4975035;28;20234;-46
2023/01/15 07:50:01;;;;;;;22.10;10.10;;;;;;;;;;4973310;28;20226;-46
2023/01/15 07:52:28;;;;;;;18.47;10.77;;;;;;;;;;4972444;28;20806;-47
2023/01/15 07:54:55;;;;;;;17.77;8.90;;;;;;;;;;4955782;28;20234;-46
2023/01/15 07:57:23;;;;;;;19.80;9.97;;;;;;;;;;4958617;28;20235;-47
2023/01/15 07:59:50;;;;;;;21.77;9.17;;;;;;;;;;4975290;28;20234;-47
2023/01/15 08:02:18;;;;;;;21.37;9.27;;;;;;;;;;4974757;28;20227;-48
2023/01/15 08:04:46;;;;;;;20.33;9.37;;;;;;;;;;4975460;28;20231;-48
2023/01/15 08:07:14;;;;;;;18.27;9.03;;;;;;;;;;4974769;28;20226;-47
2023/01/15 08:09:41;;;;;;;17.10;8.27;;;;;;;;;;4972251;28;20695;-45
2023/01/15 08:15:14;;;;;;;29.67;16.13;;;;;;;;;;4975462;28;20329;-46
2023/01/15 08:17:50;;;;;;;16.33;8.67;;;;;;;;;;4956802;28;20227;-45
2023/01/15 08:20:19;;;;;;;17.00;10.63;;;;;;;;;;4955508;28;20245;-45
2023/01/15 08:22:46;;;;;;;13.03;7.80;;;;;;;;;;4968336;28;20266;-49
2023/01/15 08:25:17;;;;;;;23.70;11.37;;;;;;;;;;4974615;28;20572;-49
2023/01/15 08:27:45;;;;;;;18.40;9.23;;;;;;;;;;4975033;28;20218;-48
2023/01/15 08:30:15;;;;;;;27.20;10.23;;;;;;;;;;4974571;28;20547;-50
2023/01/15 08:32:42;;;;;;;20.80;9.03;;;;;;;;;;4957005;28;20243;-46
2023/01/15 08:35:09;;;;;;;18.03;8.90;;;;;;;;;;4955532;28;20276;-48
2023/01/15 08:37:37;;;;;;;18.10;8.47;;;;;;;;;;4955394;28;20223;-50
2023/01/15 08:40:04;;;;;;;17.80;8.07;;;;;;;;;;4972184;28;20234;-50
2023/01/15 08:42:32;;;;;;;42.37;20.60;;;;;;;;;;4974459;28;20230;-50
2023/01/15 08:44:59;;;;;;;22.23;10.13;;;;;;;;;;4974505;28;20317;-47
2023/01/15 08:47:26;;;;;;;27.97;14.00;;;;;;;;;;4975055;28;20285;-47
2023/01/15 08:49:53;;;;;;;16.77;10.47;;;;;;;;;;4974446;28;20719;-50
2023/01/15 08:52:21;;;;;;;16.23;9.40;;;;;;;;;;4976810;28;20234;-48
2023/01/15 08:54:47;;;;;;;13.80;8.00;;;;;;;;;;4978121;28;20226;-49
2023/01/15 08:57:15;;;;;;;23.70;9.97;;;;;;;;;;4969603;28;20305;-49
2023/01/15 08:59:42;;;;;;;18.13;8.77;;;;;;;;;;4974312;28;20231;-45
2023/01/15 09:02:13;;;;;;;15.93;8.33;;;;;;;;;;4958135;28;20232;-48
2023/01/15 09:04:41;;;;;;;15.07;8.23;;;;;;;;;;4964357;28;20228;-47
2023/01/15 09:07:08;;;;;;;19.33;8.40;;;;;;;;;;4970000;28;20227;-48
2023/01/15 09:09:35;;;;;;;18.17;8.63;;;;;;;;;;4964761;28;20247;-49
2023/01/15 09:12:03;;;;;;;14.67;8.17;;;;;;;;;;4968581;28;20730;-51
2023/01/15 09:14:30;;;;;;;21.37;9.83;;;;;;;;;;4978215;28;20238;-47
2023/01/15 09:17:17;;;;;;;17.70;12.03;;;;;;;;;;4977999;28;20301;-49
2023/01/15 09:19:45;;;;;;;15.07;8.20;;;;;;;;;;4977868;28;20687;-51
2023/01/15 09:22:12;;;;;;;18.43;9.50;;;;;;;;;;4976122;28;20652;-46
2023/01/15 09:24:39;;;;;;;25.43;10.67;;;;;;;;;;4977966;28;20241;-46
2023/01/15 09:27:07;;;;;;;18.40;9.30;;;;;;;;;;4977661;28;20229;-47
2023/01/15 09:29:34;;;;;;;18.00;8.77;;;;;;;;;;4976752;28;20230;-50
2023/01/15 09:32:02;;;;;;;18.83;8.60;;;;;;;;;;4977206;28;20238;-52
2023/01/15 09:34:29;;;;;;;20.27;9.53;;;;;;;;;;4977795;28;20290;-50
2023/01/15 09:36:56;;;;;;;20.70;10.33;;;;;;;;;;4977323;28;20222;-47
2023/01/15 09:39:23;;;;;;;21.07;11.10;;;;;;;;;;4965874;28;20293;-48
2023/01/15 09:42:08;;;;;;;19.53;9.63;;;;;;;;;;4958171;28;20703;-48
2023/01/15 09:44:52;;;;;;;33.13;11.87;;;;;;;;;;4958539;28;20624;-46
2023/01/15 09:47:25;;;;;;;21.10;9.23;;;;;;;;;;4958276;28;20231;-50
2023/01/15 09:50:11;;;;;;;17.50;9.80;;;;;;;;;;4958595;28;20609;-51
2023/01/15 09:52:54;;;;;;;18.37;9.43;;;;;;;;;;4957421;28;20736;-48
2023/01/15 09:55:25;;;;;;;23.03;9.70;;;;;;;;;;4957649;28;20215;-49
2023/01/15 09:57:57;;;;;;;20.50;9.77;;;;;;;;;;4957207;28;20231;-48
2023/01/15 10:00:27;;;;;;;17.47;8.57;;;;;;;;;;4957286;29;20600;-47
2023/01/15 10:03:03;;;;;;;15.63;8.33;;;;;;;;;;4956442;28;20625;-49
2023/01/15 10:05:34;;;;;;;17.77;9.37;;;;;;;;;;4958170;28;20238;-49
2023/01/15 10:08:04;;;;;;;20.43;9.27;;;;;;;;;;4957846;28;20263;-49
2023/01/15 10:10:49;;;;;;;17.60;8.63;;;;;;;;;;4976853;28;20234;-48
2023/01/15 10:13:33;;;;;;;20.27;10.20;;;;;;;;;;4975153;28;20238;-51
2023/01/15 10:16:00;;;;;;;14.10;8.03;;;;;;;;;;4976365;28;20230;-47
2023/01/15 10:18:27;;;;;;;23.27;12.03;;;;;;;;;;4974210;28;20233;-48
2023/01/15 10:21:06;;;;;;;22.17;11.50;;;;;;;;;;4975878;28;20242;-46
2023/01/15 10:23:35;;;;;;;17.73;8.70;;;;;;;;;;4971942;28;20572;-48
2023/01/15 10:26:06;;;;;;;19.17;9.30;;;;;;;;;;4957470;28;20234;-47
2023/01/15 10:28:47;;;;;;;24.43;10.40;;;;;;;;;;4975827;28;20242;-47
2023/01/15 10:31:23;;;;;;;14.87;8.77;;;;;;;;;;4975590;28;20689;-49
2023/01/15 10:33:53;;;;;;;17.73;10.20;;;;;;;;;;4975788;28;20604;-49
2023/01/15 10:36:28;;;;;;;21.63;10.17;;;;;;;;;;4976014;28;20838;-47
2023/01/15 10:39:03;;;;;;;14.70;8.77;;;;;;;;;;4975370;28;20262;-50
2023/01/15 10:41:33;;;;;;;28.03;11.03;;;;;;;;;;4975775;28;20245;-51
2023/01/15 10:44:09;;;;;;;21.83;13.00;;;;;;;;;;4976564;28;20293;-50
2023/01/15 10:46:39;;;;;;;18.13;9.77;;;;;;;;;;4976457;28;20699;-50
2023/01/15 10:49:14;;;;;;;16.80;9.40;;;;;;;;;;4976217;28;20231;-47
2023/01/15 10:51:44;;;;;;;18.13;8.87;;;;;;;;;;4976084;28;20230;-47
2023/01/15 10:54:20;;;;;;;18.90;9.53;;;;;;;;;;4976113;28;20227;-45
2023/01/15 10:57:02;;;;;;;17.93;8.10;;;;;;;;;;4976003;28;20656;-47
2023/01/15 10:59:45;;;;;;;15.87;8.73;;;;;;;;;;4976030;28;20242;-49
2023/01/15 11:02:23;;;;;;;16.50;8.83;;;;;;;;;;4975179;28;20234;-49
2023/01/15 11:04:52;;;;;;;15.20;7.57;;;;;;;;;;4976333;28;20307;-54
2023/01/15 11:07:21;;;;;;;14.30;7.93;;;;;;;;;;4975301;28;20234;-50
2023/01/15 11:09:49;;;;;;;17.87;8.87;;;;;;;;;;4976095;28;20226;-47
2023/01/15 11:20:35;;;;;;;12.97;7.23;;;;;;;;;;4974482;28;20285;-47
2023/01/15 11:23:11;;;;;;;15.33;7.77;;;;;;;;;;4974701;28;20230;-49
2023/01/15 11:25:49;;;;;;;15.27;8.27;;;;;;;;;;4975361;28;20601;-46
2023/01/15 11:28:16;;;;;;;17.00;8.97;;;;;;;;;;4975755;28;20240;-46
2023/01/15 11:30:54;;;;;;;15.23;8.50;;;;;;;;;;4974991;28;20661;-51
2023/01/15 11:33:26;;;;;;;13.57;7.37;;;;;;;;;;4975633;28;20238;-50
2023/01/15 11:36:00;;;;;;;22.40;11.10;;;;;;;;;;4975588;28;20227;-49
2023/01/15 11:38:48;;;;;;;13.93;8.00;;;;;;;;;;4971783;28;20316;-47
2023/01/15 11:50:42;;;;;;;23.80;11.90;;;;;;;;;;4956124;28;20688;-46
2023/01/15 11:52:56;;;;;;;21.50;9.13;;;;;;;;;;4956210;28;20302;-48
2023/01/15 11:55:25;;;;;;;18.10;8.73;;;;;;;;;;4955175;28;20238;-50
2023/01/15 11:57:53;;;;;;;18.03;9.07;;;;;;;;;;4956495;28;20247;-50
2023/01/15 12:00:20;;;;;;;16.07;7.50;;;;;;;;;;4955083;28;20254;-49
2023/01/15 12:02:49;;;;;;;17.13;8.80;;;;;;;;;;4956307;28;20606;-47
2023/01/15 12:05:21;;;;;;;31.33;14.80;;;;;;;;;;4955454;28;20643;-51
2023/01/15 12:07:51;;;;;;;18.33;8.17;;;;;;;;;;4955144;29;20227;-48
2023/01/15 12:13:36;;;;;;;13.87;8.27;;;;;;;;;;4975053;28;20734;-49
2023/01/15 12:16:25;;;;;;;16.57;8.90;;;;;;;;;;4966767;28;20237;-47
2023/01/15 12:18:58;;;;;;;17.13;8.40;;;;;;;;;;4981105;28;20219;-47
2023/01/15 12:21:40;;;;;;;15.53;8.13;;;;;;;;;;4973971;28;20593;-47
2023/01/15 12:24:30;;;;;;;13.90;8.07;;;;;;;;;;4973203;28;20281;-45
2023/01/15 12:26:57;;;;;;;16.70;8.40;;;;;;;;;;4978637;28;20249;-47
2023/01/15 12:29:38;;;;;;;18.80;8.30;;;;;;;;;;4959836;28;20227;-46
2023/01/15 12:32:22;;;;;;;16.40;8.40;;;;;;;;;;4968873;28;20234;-48
2023/01/15 12:35:15;;;;;;;17.03;9.70;;;;;;;;;;4974099;28;20682;-48
2023/01/15 12:37:51;;;;;;;19.87;10.17;;;;;;;;;;4977762;28;20293;-46
2023/01/15 12:40:29;;;;;;;26.33;13.87;;;;;;;;;;4977183;28;20234;-46
2023/01/15 12:45:46;;;;;;;17.70;9.43;;;;;;;;;;4958493;28;20314;-47
2023/01/15 12:48:53;;;;;;;18.30;8.67;;;;;;;;;;4993269;28;20226;-49
2023/01/15 12:51:29;;;;;;;17.20;8.40;;;;;;;;;;4960880;28;20215;-48
2023/01/15 12:54:10;;;;;;;14.80;7.23;;;;;;;;;;4979065;28;20337;-47
2023/01/15 12:56:44;;;;;;;13.90;7.73;;;;;;;;;;4977960;28;20694;-45
2023/01/15 12:59:18;;;;;;;14.87;8.33;;;;;;;;;;4978224;28;20691;-46
2023/01/15 13:01:54;;;;;;;13.07;7.37;;;;;;;;;;4973735;28;20234;-49
2023/01/15 13:04:40;;;;;;;24.27;12.70;;;;;;;;;;4958875;29;20660;-48
2023/01/15 13:07:33;;;;;;;18.97;8.60;;;;;;;;;;4968233;28;20302;-47
2023/01/15 13:10:08;;;;;;;24.77;12.10;;;;;;;;;;4977142;28;20233;-48
2023/01/15 13:12:35;;;;;;;14.77;7.87;;;;;;;;;;4962015;28;20264;-50
2023/01/15 13:15:05;;;;;;;15.83;8.70;;;;;;;;;;4958544;28;20239;-48
2023/01/15 13:18:05;;;;;;;14.67;8.43;;;;;;;;;;4970098;28;20226;-47
2023/01/15 13:20:50;;;;;;;18.67;8.10;;;;;;;;;;4976107;28;20234;-46
2023/01/15 13:23:23;;;;;;;19.30;9.17;;;;;;;;;;4972571;28;20664;-47
2023/01/15 13:26:12;;;;;;;20.30;9.37;;;;;;;;;;4958763;28;20227;-48
2023/01/15 13:28:39;;;;;;;14.50;7.25;;;;;;;;;;4958919;28;20258;-47
2023/01/15 13:31:27;;;;;;;15.80;7.67;;;;;;;;;;4958042;28;20228;-52
2023/01/15 13:33:57;;;;;;;36.93;17.03;;;;;;;;;;4972634;28;20701;-49
2023/01/15 13:36:26;;;;;;;22.57;10.07;;;;;;;;;;4974767;28;20227;-47
2023/01/15 13:38:57;;;;;;;60.07;16.70;;;;;;;;;;4969735;28;20233;-47
2023/01/15 13:44:23;;;;;;;18.40;8.00;;;;;;;;;;4971005;28;20259;-49
2023/01/15 13:47:09;;;;;;;16.33;8.13;;;;;;;;;;4957279;28;20267;-47
2023/01/15 13:49:45;;;;;;;18.43;8.53;;;;;;;;;;4957008;29;20784;-48
2023/01/15 13:52:22;;;;;;;15.50;7.47;;;;;;;;;;4964635;28;20222;-47
2023/01/15 13:54:50;;;;;;;17.53;7.80;;;;;;;;;;4977427;28;20679;-48
2023/01/15 13:57:44;;;;;;;15.63;7.67;;;;;;;;;;4976056;28;20239;-48
2023/01/15 14:00:35;;;;;;;13.60;7.27;;;;;;;;;;4975837;28;20230;-49
2023/01/15 14:03:23;;;;;;;20.90;9.03;;;;;;;;;;4976823;28;20238;-51
2023/01/15 14:05:56;;;;;;;16.33;8.20;;;;;;;;;;4977075;28;20229;-47
2023/01/15 14:08:28;;;;;;;17.23;7.97;;;;;;;;;;4976139;28;20602;-46
2023/01/15 14:10:56;;;;;;;18.10;8.33;;;;;;;;;;4976157;28;20238;-44
2023/01/15 14:13:45;;;;;;;14.97;8.40;;;;;;;;;;4977461;28;20830;-47
2023/01/15 14:16:37;;;;;;;14.93;8.10;;;;;;;;;;4975806;28;20219;-47
2023/01/15 14:19:17;;;;;;;19.53;8.40;;;;;;;;;;4977068;28;20606;-46
2023/01/15 14:22:08;;;;;;;18.53;7.67;;;;;;;;;;4976194;28;20233;-47
2023/01/15 14:24:51;;;;;;;14.70;6.90;;;;;;;;;;4976625;28;20227;-45
2023/01/15 14:27:37;;;;;;;17.15;8.18;;;;;;;;;;4974928;28;20230;-49
2023/01/15 14:30:36;;;;;;;19.73;8.37;;;;;;;;;;4975570;28;20261;-48
2023/01/15 14:33:10;;;;;;;14.53;7.53;;;;;;;;;;4976546;28;20234;-48
2023/01/15 14:35:44;;;;;;;20.92;9.13;;;;;;;;;;4976607;28;20230;-46
2023/01/15 14:38:20;;;;;;;14.63;7.55;;;;;;;;;;4975340;28;20226;-49
2023/01/15 14:41:02;;;;;;;14.27;7.43;;;;;;;;;;4975887;28;20234;-52
2023/01/15 14:43:32;;;;;;;18.30;7.90;;;;;;;;;;4975130;28;20231;-44
2023/01/15 14:46:18;;;;;;;17.33;7.53;;;;;;;;;;4975092;28;20231;-49
2023/01/15 14:48:45;;;;;;;17.53;7.53;;;;;;;;;;4974321;28;20552;-47
2023/01/15 14:51:13;;;;;;;18.77;7.60;;;;;;;;;;4975952;28;20226;-44
2023/01/15 14:53:45;;;;;;;12.83;6.77;;;;;;;;;;4975515;28;20321;-46
2023/01/15 14:56:27;;;;;;;16.20;7.80;;;;;;;;;;4975257;28;20277;-46
2023/01/15 14:58:59;;;;;;;13.90;6.90;;;;;;;;;;4975751;28;20318;-46
2023/01/15 15:01:33;;;;;;;21.70;9.40;;;;;;;;;;4975510;28;20672;-47
2023/01/15 15:04:19;;;;;;;15.87;7.77;;;;;;;;;;4975809;28;20566;-47
2023/01/15 15:06:58;;;;;;;15.63;9.77;;;;;;;;;;4976449;28;20230;-46
2023/01/15 15:09:33;;;;;;;14.20;7.30;;;;;;;;;;4963160;28;20748;-45
2023/01/15 15:12:19;;;;;;;14.30;7.63;;;;;;;;;;4955988;28;20699;-47
2023/01/15 15:14:57;;;;;;;13.27;7.23;;;;;;;;;;4956543;29;20278;-48
2023/01/15 15:17:39;;;;;;;18.30;7.57;;;;;;;;;;4955398;28;20219;-48
2023/01/15 15:20:46;;;;;;;16.33;7.13;;;;;;;;;;4956181;28;20238;-47
2023/01/15 15:23:13;;;;;;;16.53;7.07;;;;;;;;;;4961319;28;20287;-46
2023/01/15 15:25:42;;;;;;;12.60;7.10;;;;;;;;;;4975168;28;20563;-47
2023/01/15 15:28:10;;;;;;;16.77;7.47;;;;;;;;;;4973924;28;20258;-50
2023/01/15 15:30:43;;;;;;;14.57;7.53;;;;;;;;;;4976067;28;20293;-47
2023/01/15 15:33:16;;;;;;;18.30;9.50;;;;;;;;;;4974209;28;20663;-46
2023/01/15 15:35:47;;;;;;;14.90;7.43;;;;;;;;;;4974606;28;20570;-45
2023/01/15 15:38:17;;;;;;;12.20;6.77;;;;;;;;;;4975139;28;20227;-45
2023/01/15 15:40:48;;;;;;;14.23;7.30;;;;;;;;;;4975771;28;20227;-46
2023/01/15 15:49:10;;;;;;;14.47;7.00;;;;;;;;;;4975022;28;20353;-46
2023/01/15 15:51:52;;;;;;;18.70;8.00;;;;;;;;;;4974983;28;20297;-45
2023/01/15 15:54:20;;;;;;;19.03;7.93;;;;;;;;;;4975407;28;20571;-46